createdAt,value
2023-04-18T10:51:46.655Z,25.3227
2023-04-18T10:52:48.288Z,24.5573
2023-04-18T10:53:50.727Z,24.4053
2023-04-18T10:54:51.564Z,24.4589
2023-04-18T10:55:54.217Z,24.5965
2023-04-18T10:56:54.841Z,24.7220
2023-04-18T10:57:57.577Z,24.8673
2023-04-18T10:58:58.199Z,24.9780
2023-04-18T10:59:59.769Z,25.0846
2023-04-18T11:01:01.646Z,25.1828
2023-04-18T11:02:03.162Z,25.2612
2023-04-18T11:03:05.613Z,25.3773
2023-04-18T11:04:06.405Z,25.5289
2023-04-18T11:05:08.049Z,25.6665
2023-04-18T11:06:09.664Z,25.7799
2023-04-18T11:07:11.407Z,25.8584
2023-04-18T11:08:13.050Z,25.9268
2023-04-18T11:09:14.642Z,25.9857
2023-04-18T11:10:16.202Z,26.0843
2023-04-18T11:11:17.920Z,26.1667
2023-04-18T11:12:19.858Z,26.1856
2023-04-18T11:13:21.857Z,26.1574
2023-04-18T11:14:22.912Z,25.9888
2023-04-18T11:15:24.583Z,25.7624
2023-04-18T11:16:26.300Z,25.7735
2023-04-18T11:17:27.927Z,25.8781
2023-04-18T11:18:29.581Z,26.0085
2023-04-18T11:19:31.206Z,26.1624
2023-04-18T11:20:32.838Z,26.2846
2023-04-18T11:21:34.454Z,26.3766
2023-04-18T11:22:36.831Z,26.4924
2023-04-18T11:23:37.742Z,26.5678
2023-04-18T11:24:39.456Z,26.6245
2023-04-18T11:25:41.003Z,26.6442
2023-04-18T11:26:42.792Z,26.5991
2023-04-18T11:27:44.408Z,26.4499
2023-04-18T11:28:46.035Z,26.2603
2023-04-18T11:29:47.698Z,26.1061
2023-04-18T11:30:49.374Z,25.9134
2023-04-18T11:31:51.038Z,25.9822
2023-04-18T11:32:52.708Z,26.1318
2023-04-18T11:33:54.192Z,26.2540
2023-04-18T11:34:56.775Z,26.3248
2023-04-18T11:35:57.539Z,26.3803
2023-04-18T11:36:59.189Z,26.4210
2023-04-18T11:38:00.871Z,26.4676
2023-04-18T11:39:02.582Z,26.5089
2023-04-18T11:40:04.206Z,26.5592
2023-04-18T11:41:05.785Z,26.6818
2023-04-18T11:42:07.499Z,26.7291
2023-04-18T11:43:09.166Z,26.7032
2023-04-18T11:44:10.776Z,26.5440
2023-04-18T11:45:12.374Z,26.2531
2023-04-18T11:46:14.098Z,26.0580
2023-04-18T11:47:15.665Z,26.0827
2023-04-18T11:48:17.448Z,26.1919
2023-04-18T11:49:19.012Z,26.2891
2023-04-18T11:50:20.634Z,26.3563
2023-04-18T11:51:22.367Z,26.4314
2023-04-18T11:52:23.909Z,26.5011
2023-04-18T11:53:25.620Z,26.5672
2023-04-18T11:54:27.241Z,26.6077
2023-04-18T11:55:28.876Z,26.6818
2023-04-18T11:56:30.499Z,26.7348
2023-04-18T11:57:32.131Z,26.7697
2023-04-18T11:58:33.773Z,26.8201
2023-04-18T11:59:35.494Z,26.9176
2023-04-18T12:00:37.054Z,26.9367
2023-04-18T12:01:38.724Z,26.9057
2023-04-18T12:02:40.494Z,26.6732
2023-04-18T12:03:42.260Z,26.3589
2023-04-18T12:04:44.165Z,26.2186
2023-04-18T12:05:45.594Z,26.1677
2023-04-18T12:06:47.018Z,26.2371
2023-04-18T12:07:48.603Z,26.3222
2023-04-18T12:08:51.207Z,26.4088
2023-04-18T12:09:51.936Z,26.5154
2023-04-18T12:10:54.259Z,26.5732
2023-04-18T12:11:55.204Z,26.6434
2023-04-18T12:12:56.818Z,26.7155
2023-04-18T12:13:58.444Z,26.7578
2023-04-18T12:15:00.292Z,26.7753
2023-04-18T12:16:01.805Z,26.6260
2023-04-18T12:17:03.310Z,26.3232
2023-04-18T12:18:05.810Z,26.2209
2023-04-18T12:19:06.627Z,26.2593
2023-04-18T12:20:08.322Z,26.3663
2023-04-18T12:21:09.933Z,26.4446
2023-04-18T12:22:12.221Z,26.5611
2023-04-18T12:23:13.450Z,26.6543
2023-04-18T12:24:16.626Z,26.6876
2023-04-18T12:25:16.605Z,26.7301
2023-04-18T12:26:18.191Z,26.8336
2023-04-18T12:27:19.858Z,26.8533
2023-04-18T12:28:21.487Z,26.8472
2023-04-18T12:29:23.153Z,26.7482
2023-04-18T12:30:24.846Z,26.6165
2023-04-18T12:31:26.457Z,26.5986
2023-04-18T12:32:28.068Z,26.5818
2023-04-18T12:33:29.729Z,26.7188
2023-04-18T12:34:31.310Z,26.9349
2023-04-18T12:35:33.394Z,27.1269
2023-04-18T12:36:34.636Z,27.2409
2023-04-18T12:37:36.270Z,27.2972
2023-04-18T12:38:37.914Z,27.2508
2023-04-18T12:39:39.590Z,27.0234
2023-04-18T12:40:41.252Z,26.7250
2023-04-18T12:41:42.871Z,26.5941
2023-04-18T12:42:44.494Z,26.5463
2023-04-18T12:43:46.158Z,26.4649
2023-04-18T12:44:48.044Z,26.6851
2023-04-18T12:45:49.460Z,26.9466
2023-04-18T12:46:51.210Z,27.1660
2023-04-18T12:47:52.818Z,27.1282
2023-04-18T12:48:54.363Z,27.1693
2023-04-18T12:49:55.974Z,27.2851
2023-04-18T12:50:57.731Z,27.3621
2023-04-18T12:51:59.274Z,27.4215
2023-04-18T12:53:00.882Z,27.3849
2023-04-18T12:54:02.606Z,27.0664
2023-04-18T12:55:04.204Z,26.7673
2023-04-18T12:56:05.944Z,26.5584
2023-04-18T12:57:07.482Z,26.4789
2023-04-18T12:58:09.197Z,26.5442
2023-04-18T12:59:10.780Z,26.6227
2023-04-18T13:00:12.456Z,26.6993
2023-04-18T13:01:14.247Z,26.7447
2023-04-18T13:02:15.850Z,26.8102
2023-04-18T13:03:17.400Z,26.8605
2023-04-18T13:04:19.236Z,26.9982
2023-04-18T13:05:21.388Z,27.1567
2023-04-18T13:06:22.410Z,27.2346
2023-04-18T13:07:23.927Z,27.2370
2023-04-18T13:08:25.605Z,27.0497
2023-04-18T13:09:27.213Z,27.1327
2023-04-18T13:10:28.891Z,27.0008
2023-04-18T13:11:30.870Z,26.7204
2023-04-18T13:12:32.178Z,26.5637
2023-04-18T13:13:35.604Z,26.5173
2023-04-18T13:14:35.488Z,26.6518
2023-04-18T13:15:37.097Z,26.8466
2023-04-18T13:16:39.762Z,27.0214
2023-04-18T13:17:40.485Z,27.1740
2023-04-18T13:18:42.066Z,27.3026
2023-04-18T13:19:43.716Z,27.3169
2023-04-18T13:20:45.410Z,27.2046
2023-04-18T13:21:49.126Z,26.9386
2023-04-18T13:22:48.775Z,26.6578
2023-04-18T13:23:50.328Z,26.4329
2023-04-18T13:24:51.924Z,26.4929
2023-04-18T13:25:53.597Z,26.6543
2023-04-18T13:26:55.241Z,26.8205
2023-04-18T13:27:57.465Z,26.9565
2023-04-18T13:28:58.524Z,27.0678
2023-04-18T13:30:00.205Z,27.0608
2023-04-18T13:31:01.801Z,26.9072
2023-04-18T13:32:03.593Z,26.7780
2023-04-18T13:33:05.224Z,26.8468
2023-04-18T13:34:06.830Z,26.9655
2023-04-18T13:35:08.424Z,27.0212
2023-04-18T13:36:10.124Z,26.8983
2023-04-18T13:37:11.773Z,26.7005
2023-04-18T13:38:13.415Z,26.5783
2023-04-18T13:39:15.126Z,26.6481
2023-04-18T13:40:16.687Z,26.8158
2023-04-18T13:41:18.291Z,26.9252
2023-04-18T13:42:20.005Z,26.9780
2023-04-18T13:43:21.652Z,27.0830
2023-04-18T13:44:23.271Z,27.1547
2023-04-18T13:45:24.842Z,27.1206
2023-04-18T13:46:26.631Z,27.0244
2023-04-18T13:47:28.395Z,26.9565
2023-04-18T13:48:29.892Z,26.8414
2023-04-18T13:49:31.492Z,26.7794
2023-04-18T13:50:33.166Z,26.7313
2023-04-18T13:51:34.818Z,26.7412
2023-04-18T13:52:36.503Z,26.8195
2023-04-18T13:53:38.108Z,26.8907
2023-04-18T13:54:39.722Z,26.9663
2023-04-18T13:55:41.372Z,27.0294
2023-04-18T13:56:43.044Z,26.8860
2023-04-18T13:57:44.709Z,26.8390
2023-04-18T13:58:46.455Z,26.9148
2023-04-18T13:59:47.961Z,26.9739
2023-04-18T14:00:49.578Z,26.9008
2023-04-18T14:01:51.260Z,26.7736
2023-04-18T14:02:53.576Z,26.7903
2023-04-18T14:03:54.761Z,26.7823
2023-04-18T14:04:56.282Z,26.8609
2023-04-18T14:05:57.856Z,26.8864
2023-04-18T14:06:59.473Z,26.8893
2023-04-18T14:08:01.160Z,26.9166
2023-04-18T14:09:03.758Z,26.9528
2023-04-18T14:10:05.377Z,26.8209
2023-04-18T14:11:06.103Z,26.5884
2023-04-18T14:12:07.889Z,26.3620
2023-04-18T14:13:09.380Z,26.3799
2023-04-18T14:14:11.100Z,26.5333
2023-04-18T14:15:12.740Z,26.5851
2023-04-18T14:16:14.351Z,26.6350
2023-04-18T14:17:15.950Z,26.5680
2023-04-18T14:18:17.640Z,26.6270
2023-04-18T14:19:19.319Z,26.6711
2023-04-18T14:20:21.437Z,26.6555
2023-04-18T14:21:22.494Z,26.5434
2023-04-18T14:22:24.213Z,26.3107
2023-04-18T14:23:25.910Z,26.0788
2023-04-18T14:24:27.521Z,25.8353
2023-04-18T14:25:29.171Z,25.9547
2023-04-18T14:26:30.843Z,26.1663
2023-04-18T14:27:32.421Z,26.2998
2023-04-18T14:28:34.134Z,26.3998
2023-04-18T14:29:36.364Z,26.4228
2023-04-18T14:30:37.456Z,26.4450
2023-04-18T14:31:39.104Z,26.3234
2023-04-18T14:32:40.806Z,26.1488
2023-04-18T14:33:42.317Z,26.0977
2023-04-18T14:34:44.087Z,26.2084
2023-04-18T14:35:45.707Z,26.3078
2023-04-18T14:36:47.278Z,26.3515
2023-04-18T14:37:48.924Z,26.3774
2023-04-18T14:38:50.646Z,26.4253
2023-04-18T14:39:52.300Z,26.4493
2023-04-18T14:40:54.010Z,26.5380
2023-04-18T14:41:55.504Z,26.6732
2023-04-18T14:42:57.204Z,26.7141
2023-04-18T14:43:58.801Z,26.7184
2023-04-18T14:45:00.552Z,26.6282
2023-04-18T14:46:02.174Z,26.4674
2023-04-18T14:47:03.873Z,26.4444
2023-04-18T14:48:06.333Z,26.4834
2023-04-18T14:49:07.061Z,26.4980
2023-04-18T14:50:08.812Z,26.5251
2023-04-18T14:51:10.416Z,26.6221
2023-04-18T14:52:12.068Z,26.6631
2023-04-18T14:53:13.656Z,26.6557
2023-04-18T14:54:15.356Z,26.7110
2023-04-18T14:55:16.991Z,26.7880
2023-04-18T14:56:18.739Z,26.8558
2023-04-18T14:57:20.240Z,26.9074
2023-04-18T14:58:21.920Z,26.9107
2023-04-18T14:59:23.535Z,26.6586
2023-04-18T15:00:25.205Z,26.5816
2023-04-18T15:01:26.921Z,26.4238
2023-04-18T15:02:28.578Z,26.3721
2023-04-18T15:03:31.043Z,26.4680
2023-04-18T15:04:31.906Z,26.5044
2023-04-18T15:05:33.501Z,26.6299
2023-04-18T15:06:35.527Z,26.7352
2023-04-18T15:07:36.737Z,26.7804
2023-04-18T15:08:38.388Z,26.7426
2023-04-18T15:09:40.109Z,26.5687
2023-04-18T15:10:41.720Z,26.4014
2023-04-18T15:11:43.610Z,26.3213
2023-04-18T15:12:44.963Z,26.3682
2023-04-18T15:13:46.681Z,26.4524
2023-04-18T15:14:48.248Z,26.5360
2023-04-18T15:15:50.482Z,26.5715
2023-04-18T15:16:51.687Z,26.6483
2023-04-18T15:17:53.314Z,26.7094
2023-04-18T15:18:54.898Z,26.7352
2023-04-18T15:19:56.495Z,26.5892
2023-04-18T15:20:58.214Z,26.3717
2023-04-18T15:22:00.556Z,26.3166
2023-04-18T15:23:01.493Z,26.3828
2023-04-18T15:24:03.099Z,26.4023
2023-04-18T15:25:04.821Z,26.4099
2023-04-18T15:26:06.485Z,26.4171
2023-04-18T15:27:08.116Z,26.4789
2023-04-18T15:28:09.713Z,26.5532
2023-04-18T15:29:11.385Z,26.6432
2023-04-18T15:30:13.061Z,26.6488
2023-04-18T15:31:14.774Z,26.6110
2023-04-18T15:32:16.446Z,26.4984
2023-04-18T15:33:17.998Z,26.3571
2023-04-18T15:34:19.675Z,26.0769
2023-04-18T15:35:21.900Z,26.0529
2023-04-18T15:36:23.037Z,26.1020
2023-04-18T15:37:24.659Z,26.1718
2023-04-18T15:38:26.228Z,26.2053
2023-04-18T15:39:27.831Z,26.2221
2023-04-18T15:40:29.578Z,26.2626
2023-04-18T15:41:31.220Z,26.3109
2023-04-18T15:42:32.966Z,26.3536
2023-04-18T15:43:34.528Z,26.3643
2023-04-18T15:44:36.176Z,26.3534
2023-04-18T15:45:37.858Z,26.3392
2023-04-18T15:46:41.410Z,26.3563
2023-04-18T15:47:42.101Z,26.3606
2023-04-18T15:48:42.776Z,26.3840
2023-04-18T15:49:44.473Z,26.4127
2023-04-18T15:50:46.041Z,26.4187
2023-04-18T15:51:47.798Z,26.4047
2023-04-18T15:52:49.411Z,26.4047
2023-04-18T15:53:51.008Z,26.3784
2023-04-18T15:54:52.604Z,26.3871
2023-04-18T15:55:54.363Z,26.4156
2023-04-18T15:56:55.925Z,26.4787
2023-04-18T15:57:57.583Z,26.5317
2023-04-18T15:58:59.266Z,26.4760
2023-04-18T16:00:00.941Z,26.2390
2023-04-18T16:01:02.562Z,26.0724
2023-04-18T16:02:05.081Z,26.1104
2023-04-18T16:03:05.957Z,26.1782
2023-04-18T16:04:07.619Z,26.1991
2023-04-18T16:05:09.908Z,26.2133
2023-04-18T16:06:10.778Z,26.1774
2023-04-18T16:07:12.444Z,26.1862
2023-04-18T16:08:14.066Z,26.2176
2023-04-18T16:09:15.709Z,26.2382
2023-04-18T16:10:17.347Z,26.2636
2023-04-18T16:11:18.970Z,26.2577
2023-04-18T16:12:20.748Z,26.2614
2023-04-18T16:13:22.284Z,26.2375
2023-04-18T16:14:23.947Z,26.2392
2023-04-18T16:15:25.528Z,26.2260
2023-04-18T16:16:27.211Z,26.2357
2023-04-18T16:17:28.997Z,26.2511
2023-04-18T16:18:30.534Z,26.2605
2023-04-18T16:19:32.943Z,26.2953
2023-04-18T16:20:33.833Z,26.3195
2023-04-18T16:21:35.416Z,26.3234
2023-04-18T16:22:37.104Z,26.3519
2023-04-18T16:23:38.712Z,26.3561
2023-04-18T16:24:42.011Z,26.3733
2023-04-18T16:25:41.998Z,26.3583
2023-04-18T16:26:43.596Z,26.2114
2023-04-18T16:27:45.298Z,26.1529
2023-04-18T16:28:46.874Z,26.1716
2023-04-18T16:29:48.502Z,26.2295
2023-04-18T16:30:50.181Z,26.2398
2023-04-18T16:31:52.067Z,26.2223
2023-04-18T16:32:54.159Z,26.2096
2023-04-18T16:33:55.345Z,26.2285
2023-04-18T16:34:57.885Z,26.2388
2023-04-18T16:35:58.509Z,26.2585
2023-04-18T16:37:01.177Z,26.2603
2023-04-18T16:38:03.664Z,26.2474
2023-04-18T16:39:08.189Z,26.2629
2023-04-18T16:40:09.878Z,26.2759
2023-04-18T16:41:11.561Z,26.2766
2023-04-18T16:42:15.653Z,26.2527
2023-04-18T16:43:14.776Z,26.2275
2023-04-18T16:44:16.452Z,26.2345
2023-04-18T16:45:17.962Z,26.2437
2023-04-18T16:46:19.723Z,26.2316
2023-04-18T16:47:21.277Z,26.2287
2023-04-18T16:48:22.983Z,26.2271
2023-04-18T16:49:24.590Z,26.2523
2023-04-18T16:50:26.273Z,26.2932
2023-04-18T16:51:27.885Z,26.3719
2023-04-18T16:52:29.543Z,26.4518
2023-04-18T16:53:31.518Z,26.5097
2023-04-18T16:54:32.836Z,26.5491
2023-04-18T16:55:34.470Z,26.5608
2023-04-18T16:56:36.160Z,26.4672
2023-04-18T16:57:37.834Z,26.3936
2023-04-18T16:58:39.380Z,26.3345
2023-04-18T16:59:40.997Z,26.1155
2023-04-18T17:00:42.653Z,26.0582
2023-04-18T17:01:44.329Z,26.0913
2023-04-18T17:02:46.007Z,26.1184
2023-04-18T17:03:47.704Z,26.1511
2023-04-18T17:04:49.307Z,26.1794
2023-04-18T17:05:50.817Z,26.2014
2023-04-18T17:06:52.552Z,26.1905
2023-04-18T17:07:54.107Z,26.2209
2023-04-18T17:08:55.960Z,26.2188
2023-04-18T17:09:57.484Z,26.2318
2023-04-18T17:10:59.191Z,26.2484
2023-04-18T17:12:00.785Z,26.2556
2023-04-18T17:13:02.694Z,26.2702
2023-04-18T17:14:04.145Z,26.2505
2023-04-18T17:15:06.026Z,26.2460
2023-04-18T17:16:07.429Z,26.2252
2023-04-18T17:17:09.051Z,26.2240
2023-04-18T17:18:10.796Z,26.1915
2023-04-18T17:19:12.526Z,26.1554
2023-04-18T17:20:14.983Z,26.1422
2023-04-18T17:21:15.663Z,26.1071
2023-04-18T17:22:17.277Z,26.0995
2023-04-18T17:23:18.977Z,26.0855
2023-04-18T17:24:20.648Z,26.0447
2023-04-18T17:25:22.481Z,26.0065
2023-04-18T17:26:23.917Z,25.9619
2023-04-18T17:27:25.571Z,25.8992
2023-04-18T17:28:27.217Z,25.8508
2023-04-18T17:29:28.879Z,25.8450
2023-04-18T17:30:30.970Z,25.8436
2023-04-18T17:31:32.262Z,25.8232
2023-04-18T17:32:33.908Z,25.7729
2023-04-18T17:33:36.406Z,25.7218
2023-04-18T17:34:37.165Z,25.6507
2023-04-18T17:35:38.797Z,25.5529
2023-04-18T17:36:40.416Z,25.4870
2023-04-18T17:37:42.106Z,25.4237
2023-04-18T17:38:43.764Z,25.4028
2023-04-18T17:39:45.341Z,25.3481
2023-04-18T17:40:47.486Z,25.2820
2023-04-18T17:41:48.573Z,25.2666
2023-04-18T17:42:50.327Z,25.2089
2023-04-18T17:43:51.946Z,25.1809
2023-04-18T17:44:53.651Z,25.1470
2023-04-18T17:45:55.318Z,25.1138
2023-04-18T17:46:56.978Z,25.0532
2023-04-18T17:47:58.793Z,24.9757
2023-04-18T17:49:00.553Z,24.9198
2023-04-18T17:50:02.024Z,24.8455
2023-04-18T17:51:03.685Z,24.8289
2023-04-18T17:52:05.645Z,24.8015
2023-04-18T17:53:06.936Z,24.7812
2023-04-18T17:54:08.686Z,24.7617
2023-04-18T17:55:10.358Z,24.7572
2023-04-18T17:56:12.102Z,24.7181
2023-04-18T17:57:13.513Z,24.6962
2023-04-18T17:58:15.291Z,24.6662
2023-04-18T17:59:16.970Z,24.6596
2023-04-18T18:00:18.534Z,24.5758
2023-04-18T18:01:20.182Z,24.5351
2023-04-18T18:02:23.243Z,24.4807
2023-04-18T18:03:23.417Z,24.4682
2023-04-18T18:04:28.180Z,24.4074
2023-04-18T18:05:26.684Z,24.3866
2023-04-18T18:06:28.367Z,24.3640
2023-04-18T18:07:29.977Z,24.3063
2023-04-18T18:08:31.618Z,24.2810
2023-04-18T18:09:33.198Z,24.2473
2023-04-18T18:10:34.954Z,24.1894
2023-04-18T18:11:36.658Z,24.1974
2023-04-18T18:12:38.204Z,24.1755
2023-04-18T18:13:39.782Z,24.1292
2023-04-18T18:14:41.505Z,24.1147
2023-04-18T18:15:43.216Z,24.1015
2023-04-18T18:16:44.866Z,24.0949
2023-04-18T18:17:46.494Z,24.0668
2023-04-18T18:18:48.074Z,24.0208
2023-04-18T18:19:49.734Z,23.9764
2023-04-18T18:20:51.370Z,23.9431
2023-04-18T18:21:53.089Z,23.9238
2023-04-18T18:22:54.662Z,23.8965
2023-04-18T18:23:56.324Z,23.8622
2023-04-18T18:24:57.969Z,23.8425
2023-04-18T18:25:59.660Z,23.7930
2023-04-18T18:27:01.279Z,23.7659
2023-04-18T18:28:02.903Z,23.7234
2023-04-18T18:29:04.511Z,23.7092
2023-04-18T18:30:06.211Z,23.6283
2023-04-18T18:31:07.908Z,23.5876
2023-04-18T18:32:09.523Z,23.5381
2023-04-18T18:33:11.983Z,23.4927
2023-04-18T18:34:12.771Z,23.4378
2023-04-18T18:35:14.462Z,23.3924
2023-04-18T18:36:16.142Z,23.3859
2023-04-18T18:37:17.704Z,23.3957
2023-04-18T18:38:19.359Z,23.3195
2023-04-18T18:39:21.094Z,23.2817
2023-04-18T18:40:22.682Z,23.2789
2023-04-18T18:41:24.646Z,23.2415
2023-04-18T18:42:25.968Z,23.1950
2023-04-18T18:43:27.593Z,23.1402
2023-04-18T18:44:29.204Z,23.1141
2023-04-18T18:45:30.887Z,23.0936
2023-04-18T18:46:32.685Z,23.0198
2023-04-18T18:47:34.922Z,22.9985
2023-04-18T18:48:35.816Z,22.9691
2023-04-18T18:49:37.483Z,22.9722
2023-04-18T18:50:39.133Z,22.9529
2023-04-18T18:51:40.853Z,22.9126
2023-04-18T18:52:42.435Z,22.8602
2023-04-18T18:53:45.160Z,22.8033
2023-04-18T18:54:45.716Z,22.7978
2023-04-18T18:55:47.290Z,22.7709
2023-04-18T18:56:49.024Z,22.7503
2023-04-18T18:57:50.694Z,22.7302
2023-04-18T18:58:52.439Z,22.6963
2023-04-18T18:59:55.721Z,22.6429
2023-04-18T19:00:55.575Z,22.5928
2023-04-18T19:01:57.292Z,22.5649
2023-04-18T19:02:59.713Z,22.5447
2023-04-18T19:04:00.710Z,22.5252
2023-04-18T19:05:02.317Z,22.4827
2023-04-18T19:06:03.728Z,22.4330
2023-04-18T19:07:05.449Z,22.4270
2023-04-18T19:08:07.197Z,22.3958
2023-04-18T19:09:08.757Z,22.3619
2023-04-18T19:10:10.370Z,22.3436
2023-04-18T19:11:12.016Z,22.2898
2023-04-18T19:12:13.738Z,22.3021
2023-04-18T19:13:15.397Z,22.2666
2023-04-18T19:14:17.019Z,22.2270
2023-04-18T19:15:18.567Z,22.1869
2023-04-18T19:16:20.347Z,22.1510
2023-04-18T19:17:22.037Z,22.1333
2023-04-18T19:18:23.631Z,22.1128
2023-04-18T19:19:25.136Z,22.0908
2023-04-18T19:20:28.721Z,22.0361
2023-04-18T19:21:28.513Z,21.9984
2023-04-18T19:22:30.230Z,21.9749
2023-04-18T19:23:32.096Z,21.9589
2023-04-18T19:24:33.448Z,21.9669
2023-04-18T19:25:35.048Z,21.9318
2023-04-18T19:26:36.727Z,21.9125
2023-04-18T19:27:38.414Z,21.9172
2023-04-18T19:28:40.156Z,21.8162
2023-04-18T19:29:41.679Z,21.7782
2023-04-18T19:30:43.314Z,21.8141
2023-04-18T19:31:44.942Z,21.7767
2023-04-18T19:32:46.695Z,21.7233
2023-04-18T19:33:48.327Z,21.7124
2023-04-18T19:34:49.905Z,21.6720
2023-04-18T19:35:51.610Z,21.6898
2023-04-18T19:36:53.237Z,21.6600
2023-04-18T19:37:54.911Z,21.6144
2023-04-18T19:38:56.611Z,21.6157
2023-04-18T19:39:58.216Z,21.6097
2023-04-18T19:40:59.803Z,21.5539
2023-04-18T19:42:01.400Z,21.5489
2023-04-18T19:43:03.619Z,21.5050
2023-04-18T19:44:04.773Z,21.4725
2023-04-18T19:45:06.432Z,21.4772
2023-04-18T19:46:08.199Z,21.4450
2023-04-18T19:47:09.717Z,21.4331
2023-04-18T19:48:11.404Z,21.4292
2023-04-18T19:49:13.308Z,21.4000
2023-04-18T19:50:14.723Z,21.3645
2023-04-18T19:51:16.272Z,21.3602
2023-04-18T19:52:18.007Z,21.3285
2023-04-18T19:53:20.301Z,21.2772
2023-04-18T19:54:21.972Z,21.2860
2023-04-18T19:55:23.024Z,21.2673
2023-04-18T19:56:24.532Z,21.2400
2023-04-18T19:57:26.256Z,21.2081
2023-04-18T19:58:27.819Z,21.2020
2023-04-18T19:59:29.515Z,21.1474
2023-04-18T20:00:31.134Z,21.1402
2023-04-18T20:01:32.854Z,21.1003
2023-04-18T20:02:34.640Z,21.0720
2023-04-18T20:03:36.276Z,21.0765
2023-04-18T20:04:37.985Z,21.0650
2023-04-18T20:05:39.409Z,21.0422
2023-04-18T20:06:41.009Z,21.0354
2023-04-18T20:07:42.676Z,21.0181
2023-04-18T20:08:44.326Z,20.9851
2023-04-18T20:09:45.957Z,20.9547
2023-04-18T20:10:47.601Z,20.9261
2023-04-18T20:11:49.261Z,20.9120
2023-04-18T20:12:50.843Z,20.9169
2023-04-18T20:13:52.598Z,20.8873
2023-04-18T20:14:54.175Z,20.8583
2023-04-18T20:15:55.834Z,20.7936
2023-04-18T20:16:57.568Z,20.7782
2023-04-18T20:17:59.256Z,20.7509
2023-04-18T20:19:00.803Z,20.7731
2023-04-18T20:20:02.380Z,20.7259
2023-04-18T20:21:04.087Z,20.7351
2023-04-18T20:22:05.697Z,20.7035
2023-04-18T20:23:07.309Z,20.6735
2023-04-18T20:24:09.026Z,20.6607
2023-04-18T20:25:10.653Z,20.6234
2023-04-18T20:26:13.094Z,20.6051
2023-04-18T20:27:13.890Z,20.5893
2023-04-18T20:28:15.581Z,20.5868
2023-04-18T20:29:17.285Z,20.5759
2023-04-18T20:30:18.856Z,20.5640
2023-04-18T20:31:20.574Z,20.5260
2023-04-18T20:32:22.139Z,20.5163
2023-04-18T20:33:23.825Z,20.5172
2023-04-18T20:34:25.506Z,20.4831
2023-04-18T20:35:27.163Z,20.4644
2023-04-18T20:36:28.777Z,20.4346
2023-04-18T20:37:30.445Z,20.4278
2023-04-18T20:38:32.092Z,20.4190
2023-04-18T20:39:33.776Z,20.3832
2023-04-18T20:40:35.354Z,20.3459
2023-04-18T20:41:37.022Z,20.3288
2023-04-18T20:42:38.637Z,20.3461
2023-04-18T20:43:40.370Z,20.3633
2023-04-18T20:44:42.074Z,20.3391
2023-04-18T20:45:43.650Z,20.3785
2023-04-18T20:46:45.274Z,20.3348
2023-04-18T20:47:46.957Z,20.3239
2023-04-18T20:48:48.510Z,20.3054
2023-04-18T20:49:50.165Z,20.2748
2023-04-18T20:50:51.947Z,20.2887
2023-04-18T20:51:53.424Z,20.2532
2023-04-18T20:52:55.162Z,20.2140
2023-04-18T20:53:56.716Z,20.2127
2023-04-18T20:54:58.477Z,20.2468
2023-04-18T20:56:00.086Z,20.2397
2023-04-18T20:57:01.719Z,20.2058
2023-04-18T20:58:03.335Z,20.2339
2023-04-18T20:59:05.068Z,20.2132
2023-04-18T21:00:06.685Z,20.1906
2023-04-18T21:01:08.356Z,20.1869
2023-04-18T21:02:10.089Z,20.1883
2023-04-18T21:03:11.750Z,20.1961
2023-04-18T21:04:13.680Z,20.1316
2023-04-18T21:05:14.971Z,20.1567
2023-04-18T21:06:16.506Z,20.1505
2023-04-18T21:07:18.199Z,20.1832
2023-04-18T21:08:19.820Z,20.2664
2023-04-18T21:09:21.488Z,20.2659
2023-04-18T21:10:23.161Z,20.2588
2023-04-18T21:11:24.790Z,20.2719
2023-04-18T21:12:26.351Z,20.2240
2023-04-18T21:13:28.083Z,20.1885
2023-04-18T21:14:29.681Z,20.1519
2023-04-18T21:15:31.401Z,20.1121
2023-04-18T21:16:33.141Z,20.0897
2023-04-18T21:17:34.692Z,20.0961
2023-04-18T21:18:36.541Z,20.0269
2023-04-18T21:19:37.977Z,20.0883
2023-04-18T21:20:39.672Z,20.1191
2023-04-18T21:21:41.259Z,20.1758
2023-04-18T21:22:42.911Z,20.2199
2023-04-18T21:23:44.542Z,20.2487
2023-04-18T21:24:46.190Z,20.2240
2023-04-18T21:25:47.903Z,20.1821
2023-04-18T21:26:49.441Z,20.1554
2023-04-18T21:27:51.149Z,20.1289
2023-04-18T21:28:52.755Z,20.1226
2023-04-18T21:29:54.440Z,20.0651
2023-04-18T21:30:56.164Z,20.0258
2023-04-18T21:31:57.785Z,20.0254
2023-04-18T21:32:59.377Z,20.0199
2023-04-18T21:34:01.068Z,20.0057
2023-04-18T21:35:03.605Z,20.0497
2023-04-18T21:36:04.353Z,20.1142
2023-04-18T21:37:05.962Z,20.1624
2023-04-18T21:38:07.538Z,20.1807
2023-04-18T21:39:09.241Z,20.1255
2023-04-18T21:40:10.952Z,20.0784
2023-04-18T21:41:12.612Z,20.0213
2023-04-18T21:42:14.110Z,19.9798
2023-04-18T21:43:15.841Z,19.9710
2023-04-18T21:44:17.477Z,19.9431
2023-04-18T21:45:19.194Z,19.9126
2023-04-18T21:46:24.220Z,19.9521
2023-04-18T21:47:22.402Z,19.9780
2023-04-18T21:48:24.013Z,20.0147
2023-04-18T21:49:25.643Z,20.0367
2023-04-18T21:50:27.306Z,20.0951
2023-04-18T21:51:29.113Z,20.1647
2023-04-18T21:52:30.597Z,20.1918
2023-04-18T21:53:32.259Z,20.1439
2023-04-18T21:54:33.881Z,20.1113
2023-04-18T21:55:35.561Z,20.0677
2023-04-18T21:56:37.224Z,20.0139
2023-04-18T21:57:38.826Z,20.0178
2023-04-18T21:58:40.453Z,19.9663
2023-04-18T21:59:42.209Z,19.9242
2023-04-18T22:00:43.846Z,19.9585
2023-04-18T22:01:45.449Z,19.9757
2023-04-18T22:02:47.313Z,20.0369
2023-04-18T22:03:48.888Z,20.0864
2023-04-18T22:04:50.332Z,20.1218
2023-04-18T22:05:52.548Z,20.0864
2023-04-18T22:06:53.682Z,20.0729
2023-04-18T22:07:58.458Z,20.0137
2023-04-18T22:08:56.928Z,19.9843
2023-04-18T22:09:58.606Z,19.9850
2023-04-18T22:11:01.142Z,19.9566
2023-04-18T22:12:01.958Z,19.9071
2023-04-18T22:13:03.601Z,19.8960
2023-04-18T22:14:05.216Z,20.0055
2023-04-18T22:15:06.817Z,20.0875
2023-04-18T22:16:09.101Z,20.2012
2023-04-18T22:17:10.180Z,20.2164
2023-04-18T22:18:11.792Z,20.1826
2023-04-18T22:19:13.410Z,20.0920
2023-04-18T22:20:15.079Z,20.0478
2023-04-18T22:21:16.734Z,20.0106
2023-04-18T22:22:18.408Z,19.9498
2023-04-18T22:23:20.050Z,19.9864
2023-04-18T22:24:21.802Z,19.9977
2023-04-18T22:25:23.322Z,19.9780
2023-04-18T22:26:25.006Z,19.9385
2023-04-18T22:27:27.122Z,19.9965
2023-04-18T22:28:28.291Z,20.0749
2023-04-18T22:29:29.895Z,20.0940
2023-04-18T22:30:31.686Z,20.0992
2023-04-18T22:31:34.061Z,20.1012
2023-04-18T22:32:34.938Z,20.0505
2023-04-18T22:33:36.532Z,19.9835
2023-04-18T22:34:38.104Z,19.9595
2023-04-18T22:35:39.807Z,19.9149
2023-04-18T22:36:41.439Z,19.9330
2023-04-18T22:37:43.599Z,19.9671
2023-04-18T22:38:44.754Z,19.9960
2023-04-18T22:39:46.375Z,20.0369
2023-04-18T22:40:48.007Z,20.0774
2023-04-18T22:41:49.722Z,20.1450
2023-04-18T22:42:51.336Z,20.1971
2023-04-18T22:43:52.992Z,20.1865
2023-04-18T22:44:54.633Z,20.1485
2023-04-18T22:45:56.353Z,20.0848
2023-04-18T22:46:57.974Z,20.0219
2023-04-18T22:48:00.628Z,19.9948
2023-04-18T22:49:01.360Z,19.9714
2023-04-18T22:50:03.090Z,19.9897
2023-04-18T22:51:04.686Z,20.0564
2023-04-18T22:52:06.342Z,20.1070
2023-04-18T22:53:08.082Z,20.1503
2023-04-18T22:54:09.649Z,20.1643
2023-04-18T22:55:11.369Z,20.1826
2023-04-18T22:56:12.922Z,20.2243
2023-04-18T22:57:15.275Z,20.2259
2023-04-18T22:58:16.296Z,20.1959
2023-04-18T22:59:18.791Z,20.1131
2023-04-18T23:00:19.527Z,20.0718
2023-04-18T23:01:23.016Z,20.0404
2023-04-18T23:02:23.005Z,20.0394
2023-04-18T23:03:24.893Z,20.0131
2023-04-18T23:04:26.267Z,20.0710
2023-04-18T23:05:27.763Z,20.1094
2023-04-18T23:06:29.392Z,20.1193
2023-04-18T23:07:30.959Z,20.1534
2023-04-18T23:08:32.718Z,20.2051
2023-04-18T23:09:34.264Z,20.2273
2023-04-18T23:10:35.972Z,20.1782
2023-04-18T23:11:37.589Z,20.1148
2023-04-18T23:12:39.276Z,20.0577
2023-04-18T23:13:40.966Z,19.9999
2023-04-18T23:14:42.573Z,19.9708
2023-04-18T23:15:44.182Z,19.9673
2023-04-18T23:16:45.882Z,19.9572